sensor_id;sensor_type;location;lat;lon;timestamp;P1;durP1;ratioP1;P2;durP2;ratioP2
51981;SDS011;37998;53.416;6.730;2022-07-29T00:00:40;3.47;;;1.77;;
51981;SDS011;37998;53.416;6.730;2022-07-29T00:03:06;4.22;;;1.48;;
51981;SDS011;37998;53.416;6.730;2022-07-29T00:05:31;4.88;;;1.65;;
51981;SDS011;37998;53.416;6.730;2022-07-29T00:07:57;8.02;;;1.83;;
51981;SDS011;37998;53.416;6.730;2022-07-29T00:10:22;3.53;;;1.40;;
51981;SDS011;37998;53.416;6.730;2022-07-29T00:12:48;8.43;;;1.90;;
51981;SDS011;37998;53.416;6.730;2022-07-29T00:15:14;2.20;;;1.20;;
51981;SDS011;37998;53.416;6.730;2022-07-29T00:17:39;2.20;;;1.38;;
51981;SDS011;37998;53.416;6.730;2022-07-29T00:20:05;3.42;;;1.42;;
51981;SDS011;37998;53.416;6.730;2022-07-29T00:22:31;1.77;;;1.38;;
51981;SDS011;37998;53.416;6.730;2022-07-29T00:24:57;2.58;;;1.33;;
51981;SDS011;37998;53.416;6.730;2022-07-29T00:27:23;3.53;;;1.40;;
51981;SDS011;37998;53.416;6.730;2022-07-29T00:29:48;4.15;;;1.50;;
51981;SDS011;37998;53.416;6.730;2022-07-29T00:32:14;3.28;;;1.45;;
51981;SDS011;37998;53.416;6.730;2022-07-29T00:34:40;2.70;;;1.30;;
51981;SDS011;37998;53.416;6.730;2022-07-29T00:37:24;3.95;;;1.60;;
51981;SDS011;37998;53.416;6.730;2022-07-29T00:39:50;3.58;;;1.40;;
51981;SDS011;37998;53.416;6.730;2022-07-29T00:42:16;3.90;;;1.88;;
51981;SDS011;37998;53.416;6.730;2022-07-29T00:44:42;9.55;;;1.73;;
51981;SDS011;37998;53.416;6.730;2022-07-29T00:47:08;5.55;;;1.50;;
51981;SDS011;37998;53.416;6.730;2022-07-29T00:49:35;2.63;;;1.50;;
51981;SDS011;37998;53.416;6.730;2022-07-29T00:52:03;2.75;;;1.67;;
51981;SDS011;37998;53.416;6.730;2022-07-29T00:54:29;6.82;;;1.63;;
51981;SDS011;37998;53.416;6.730;2022-07-29T00:56:58;4.05;;;1.60;;
51981;SDS011;37998;53.416;6.730;2022-07-29T00:59:25;3.83;;;1.60;;
51981;SDS011;37998;53.416;6.730;2022-07-29T01:01:52;2.97;;;1.77;;
51981;SDS011;37998;53.416;6.730;2022-07-29T01:04:19;3.95;;;1.75;;
51981;SDS011;37998;53.416;6.730;2022-07-29T01:06:46;4.15;;;1.48;;
51981;SDS011;37998;53.416;6.730;2022-07-29T01:09:13;5.78;;;2.00;;
51981;SDS011;37998;53.416;6.730;2022-07-29T01:11:40;4.72;;;1.65;;
51981;SDS011;37998;53.416;6.730;2022-07-29T01:14:07;6.57;;;1.80;;
51981;SDS011;37998;53.416;6.730;2022-07-29T01:16:42;2.95;;;1.70;;
51981;SDS011;37998;53.416;6.730;2022-07-29T01:19:26;3.47;;;1.83;;
51981;SDS011;37998;53.416;6.730;2022-07-29T01:22:13;4.20;;;1.63;;
51981;SDS011;37998;53.416;6.730;2022-07-29T01:30:21;3.95;;;1.85;;
51981;SDS011;37998;53.416;6.730;2022-07-29T01:32:50;4.88;;;1.70;;
51981;SDS011;37998;53.416;6.730;2022-07-29T01:35:23;3.83;;;1.73;;
51981;SDS011;37998;53.416;6.730;2022-07-29T01:38:04;4.05;;;1.80;;
51981;SDS011;37998;53.416;6.730;2022-07-29T01:40:32;4.53;;;1.70;;
51981;SDS011;37998;53.416;6.730;2022-07-29T01:43:03;4.40;;;1.63;;
51981;SDS011;37998;53.416;6.730;2022-07-29T01:45:40;4.72;;;1.65;;
51981;SDS011;37998;53.416;6.730;2022-07-29T01:51:19;7.22;;;1.70;;
51981;SDS011;37998;53.416;6.730;2022-07-29T01:53:54;2.80;;;1.30;;
51981;SDS011;37998;53.416;6.730;2022-07-29T01:56:30;2.92;;;1.48;;
51981;SDS011;37998;53.416;6.730;2022-07-29T01:59:01;3.75;;;1.55;;
51981;SDS011;37998;53.416;6.730;2022-07-29T02:01:29;4.70;;;1.42;;
51981;SDS011;37998;53.416;6.730;2022-07-29T02:03:57;2.42;;;1.45;;
51981;SDS011;37998;53.416;6.730;2022-07-29T02:06:27;3.38;;;1.35;;
51981;SDS011;37998;53.416;6.730;2022-07-29T02:08:54;4.70;;;1.30;;
51981;SDS011;37998;53.416;6.730;2022-07-29T02:11:22;2.08;;;1.50;;
51981;SDS011;37998;53.416;6.730;2022-07-29T02:13:47;3.83;;;1.65;;
51981;SDS011;37998;53.416;6.730;2022-07-29T02:16:14;3.17;;;1.80;;
51981;SDS011;37998;53.416;6.730;2022-07-29T02:18:43;4.32;;;1.48;;
51981;SDS011;37998;53.416;6.730;2022-07-29T02:21:12;4.55;;;1.60;;
51981;SDS011;37998;53.416;6.730;2022-07-29T02:23:43;3.13;;;1.40;;
51981;SDS011;37998;53.416;6.730;2022-07-29T02:26:10;4.20;;;1.60;;
51981;SDS011;37998;53.416;6.730;2022-07-29T02:28:36;2.97;;;1.40;;
51981;SDS011;37998;53.416;6.730;2022-07-29T02:31:05;2.90;;;1.60;;
51981;SDS011;37998;53.416;6.730;2022-07-29T02:33:32;3.58;;;1.40;;
51981;SDS011;37998;53.416;6.730;2022-07-29T02:35:58;3.60;;;1.42;;
51981;SDS011;37998;53.416;6.730;2022-07-29T02:38:25;3.15;;;1.50;;
51981;SDS011;37998;53.416;6.730;2022-07-29T02:41:13;5.55;;;1.70;;
51981;SDS011;37998;53.416;6.730;2022-07-29T02:43:43;5.68;;;1.40;;
51981;SDS011;37998;53.416;6.730;2022-07-29T02:46:13;1.63;;;1.30;;
51981;SDS011;37998;53.416;6.730;2022-07-29T02:48:44;2.95;;;1.50;;
51981;SDS011;37998;53.416;6.730;2022-07-29T02:51:23;4.28;;;1.50;;
51981;SDS011;37998;53.416;6.730;2022-07-29T02:53:54;4.18;;;1.50;;
51981;SDS011;37998;53.416;6.730;2022-07-29T02:56:23;4.72;;;1.65;;
51981;SDS011;37998;53.416;6.730;2022-07-29T02:58:56;2.05;;;1.50;;
51981;SDS011;37998;53.416;6.730;2022-07-29T03:01:25;3.92;;;1.50;;
51981;SDS011;37998;53.416;6.730;2022-07-29T03:03:57;4.18;;;2.30;;
51981;SDS011;37998;53.416;6.730;2022-07-29T03:06:28;2.80;;;1.50;;
51981;SDS011;37998;53.416;6.730;2022-07-29T03:08:55;5.78;;;1.52;;
51981;SDS011;37998;53.416;6.730;2022-07-29T03:11:23;3.08;;;1.50;;
51981;SDS011;37998;53.416;6.730;2022-07-29T03:13:50;1.88;;;1.27;;
51981;SDS011;37998;53.416;6.730;2022-07-29T03:16:17;5.43;;;1.75;;
51981;SDS011;37998;53.416;6.730;2022-07-29T03:18:44;1.67;;;1.33;;
51981;SDS011;37998;53.416;6.730;2022-07-29T03:21:10;6.30;;;1.65;;
51981;SDS011;37998;53.416;6.730;2022-07-29T03:23:36;5.30;;;1.55;;
51981;SDS011;37998;53.416;6.730;2022-07-29T03:26:01;2.97;;;1.67;;
51981;SDS011;37998;53.416;6.730;2022-07-29T03:28:27;5.35;;;1.60;;
51981;SDS011;37998;53.416;6.730;2022-07-29T03:30:54;3.50;;;1.50;;
51981;SDS011;37998;53.416;6.730;2022-07-29T03:33:19;4.45;;;1.77;;
51981;SDS011;37998;53.416;6.730;2022-07-29T03:35:45;5.82;;;1.63;;
51981;SDS011;37998;53.416;6.730;2022-07-29T03:38:11;5.10;;;1.67;;
51981;SDS011;37998;53.416;6.730;2022-07-29T03:43:34;4.50;;;1.85;;
51981;SDS011;37998;53.416;6.730;2022-07-29T03:46:03;4.75;;;1.60;;
51981;SDS011;37998;53.416;6.730;2022-07-29T03:48:31;4.32;;;1.80;;
51981;SDS011;37998;53.416;6.730;2022-07-29T03:51:00;7.03;;;1.30;;
51981;SDS011;37998;53.416;6.730;2022-07-29T03:53:26;4.38;;;1.80;;
51981;SDS011;37998;53.416;6.730;2022-07-29T03:55:54;2.35;;;1.35;;
51981;SDS011;37998;53.416;6.730;2022-07-29T03:58:22;6.82;;;2.30;;
51981;SDS011;37998;53.416;6.730;2022-07-29T04:00:51;2.00;;;1.35;;
51981;SDS011;37998;53.416;6.730;2022-07-29T04:03:17;3.83;;;1.55;;
51981;SDS011;37998;53.416;6.730;2022-07-29T04:05:43;4.45;;;1.60;;
51981;SDS011;37998;53.416;6.730;2022-07-29T04:08:09;5.78;;;1.90;;
51981;SDS011;37998;53.416;6.730;2022-07-29T04:10:34;3.42;;;1.50;;
51981;SDS011;37998;53.416;6.730;2022-07-29T04:13:00;6.35;;;1.70;;
51981;SDS011;37998;53.416;6.730;2022-07-29T04:15:26;4.43;;;1.33;;
51981;SDS011;37998;53.416;6.730;2022-07-29T04:17:53;2.88;;;1.60;;
51981;SDS011;37998;53.416;6.730;2022-07-29T04:20:19;6.10;;;1.55;;
51981;SDS011;37998;53.416;6.730;2022-07-29T04:22:45;4.97;;;1.40;;
51981;SDS011;37998;53.416;6.730;2022-07-29T04:25:10;5.00;;;2.05;;
51981;SDS011;37998;53.416;6.730;2022-07-29T04:27:36;5.88;;;1.58;;
51981;SDS011;37998;53.416;6.730;2022-07-29T04:30:22;4.15;;;1.60;;
51981;SDS011;37998;53.416;6.730;2022-07-29T04:32:47;3.10;;;1.60;;
51981;SDS011;37998;53.416;6.730;2022-07-29T04:35:13;2.78;;;1.50;;
51981;SDS011;37998;53.416;6.730;2022-07-29T04:37:38;5.03;;;1.55;;
51981;SDS011;37998;53.416;6.730;2022-07-29T04:40:04;2.30;;;1.48;;
51981;SDS011;37998;53.416;6.730;2022-07-29T04:42:30;4.05;;;1.70;;
51981;SDS011;37998;53.416;6.730;2022-07-29T04:44:56;3.90;;;1.55;;
51981;SDS011;37998;53.416;6.730;2022-07-29T04:47:21;5.95;;;1.90;;
51981;SDS011;37998;53.416;6.730;2022-07-29T04:49:47;4.43;;;1.60;;
51981;SDS011;37998;53.416;6.730;2022-07-29T04:52:13;9.40;;;2.00;;
51981;SDS011;37998;53.416;6.730;2022-07-29T04:54:38;4.88;;;1.80;;
51981;SDS011;37998;53.416;6.730;2022-07-29T04:57:04;2.95;;;1.50;;
51981;SDS011;37998;53.416;6.730;2022-07-29T04:59:29;4.93;;;1.70;;
51981;SDS011;37998;53.416;6.730;2022-07-29T05:01:55;5.47;;;1.73;;
51981;SDS011;37998;53.416;6.730;2022-07-29T05:04:21;3.45;;;1.40;;
51981;SDS011;37998;53.416;6.730;2022-07-29T05:06:47;8.20;;;1.45;;
51981;SDS011;37998;53.416;6.730;2022-07-29T05:09:12;4.75;;;1.60;;
51981;SDS011;37998;53.416;6.730;2022-07-29T05:11:38;5.13;;;2.00;;
51981;SDS011;37998;53.416;6.730;2022-07-29T05:14:03;8.27;;;1.85;;
51981;SDS011;37998;53.416;6.730;2022-07-29T05:16:29;6.85;;;1.60;;
51981;SDS011;37998;53.416;6.730;2022-07-29T05:18:55;5.75;;;1.90;;
51981;SDS011;37998;53.416;6.730;2022-07-29T05:21:21;4.97;;;1.80;;
51981;SDS011;37998;53.416;6.730;2022-07-29T05:23:46;4.18;;;1.52;;
51981;SDS011;37998;53.416;6.730;2022-07-29T05:26:12;7.07;;;2.40;;
51981;SDS011;37998;53.416;6.730;2022-07-29T05:28:38;4.55;;;1.80;;
51981;SDS011;37998;53.416;6.730;2022-07-29T05:31:03;6.55;;;1.70;;
51981;SDS011;37998;53.416;6.730;2022-07-29T05:33:29;5.32;;;1.83;;
51981;SDS011;37998;53.416;6.730;2022-07-29T05:35:55;9.13;;;1.63;;
51981;SDS011;37998;53.416;6.730;2022-07-29T05:38:20;5.32;;;1.83;;
51981;SDS011;37998;53.416;6.730;2022-07-29T05:40:46;6.78;;;1.77;;
51981;SDS011;37998;53.416;6.730;2022-07-29T05:43:11;6.57;;;1.50;;
51981;SDS011;37998;53.416;6.730;2022-07-29T05:45:38;4.88;;;1.70;;
51981;SDS011;37998;53.416;6.730;2022-07-29T05:48:04;4.93;;;1.75;;
51981;SDS011;37998;53.416;6.730;2022-07-29T05:50:29;6.00;;;2.00;;
51981;SDS011;37998;53.416;6.730;2022-07-29T05:52:55;5.47;;;1.88;;
51981;SDS011;37998;53.416;6.730;2022-07-29T05:55:20;7.75;;;1.90;;
51981;SDS011;37998;53.416;6.730;2022-07-29T05:57:46;5.55;;;2.13;;
51981;SDS011;37998;53.416;6.730;2022-07-29T06:00:12;6.05;;;2.00;;
51981;SDS011;37998;53.416;6.730;2022-07-29T06:02:38;4.78;;;1.77;;
51981;SDS011;37998;53.416;6.730;2022-07-29T06:05:03;5.68;;;2.10;;
51981;SDS011;37998;53.416;6.730;2022-07-29T06:07:29;3.17;;;1.42;;
51981;SDS011;37998;53.416;6.730;2022-07-29T06:09:55;3.83;;;1.75;;
51981;SDS011;37998;53.416;6.730;2022-07-29T06:12:21;6.13;;;2.17;;
51981;SDS011;37998;53.416;6.730;2022-07-29T06:14:46;5.93;;;1.88;;
51981;SDS011;37998;53.416;6.730;2022-07-29T06:17:12;5.10;;;1.70;;
51981;SDS011;37998;53.416;6.730;2022-07-29T06:19:38;8.32;;;1.80;;
51981;SDS011;37998;53.416;6.730;2022-07-29T06:22:03;4.78;;;1.50;;
51981;SDS011;37998;53.416;6.730;2022-07-29T06:24:29;7.22;;;2.22;;
51981;SDS011;37998;53.416;6.730;2022-07-29T06:26:55;5.38;;;1.85;;
51981;SDS011;37998;53.416;6.730;2022-07-29T06:29:21;5.35;;;1.80;;
51981;SDS011;37998;53.416;6.730;2022-07-29T06:31:46;9.32;;;1.88;;
51981;SDS011;37998;53.416;6.730;2022-07-29T06:34:12;7.30;;;1.90;;
51981;SDS011;37998;53.416;6.730;2022-07-29T06:36:38;4.47;;;1.70;;
51981;SDS011;37998;53.416;6.730;2022-07-29T06:39:04;3.28;;;1.55;;
51981;SDS011;37998;53.416;6.730;2022-07-29T06:41:33;4.05;;;2.17;;
51981;SDS011;37998;53.416;6.730;2022-07-29T06:43:59;5.60;;;1.40;;
51981;SDS011;37998;53.416;6.730;2022-07-29T06:46:24;4.22;;;1.70;;
51981;SDS011;37998;53.416;6.730;2022-07-29T06:48:50;5.78;;;1.65;;
51981;SDS011;37998;53.416;6.730;2022-07-29T06:51:17;5.10;;;1.75;;
51981;SDS011;37998;53.416;6.730;2022-07-29T06:53:43;3.35;;;1.65;;
51981;SDS011;37998;53.416;6.730;2022-07-29T06:56:09;5.20;;;1.65;;
51981;SDS011;37998;53.416;6.730;2022-07-29T06:58:35;8.80;;;2.03;;
51981;SDS011;37998;53.416;6.730;2022-07-29T07:01:02;9.70;;;2.10;;
51981;SDS011;37998;53.416;6.730;2022-07-29T07:03:29;4.97;;;1.73;;
51981;SDS011;37998;53.416;6.730;2022-07-29T07:05:55;7.18;;;2.03;;
51981;SDS011;37998;53.416;6.730;2022-07-29T07:08:21;5.22;;;2.45;;
51981;SDS011;37998;53.416;6.730;2022-07-29T07:10:48;5.72;;;1.98;;
51981;SDS011;37998;53.416;6.730;2022-07-29T07:13:13;6.00;;;2.08;;
51981;SDS011;37998;53.416;6.730;2022-07-29T07:15:39;8.30;;;1.90;;
51981;SDS011;37998;53.416;6.730;2022-07-29T07:18:06;3.47;;;1.88;;
51981;SDS011;37998;53.416;6.730;2022-07-29T07:20:32;4.35;;;1.83;;
51981;SDS011;37998;53.416;6.730;2022-07-29T07:22:58;5.68;;;2.22;;
51981;SDS011;37998;53.416;6.730;2022-07-29T07:25:24;2.10;;;1.88;;
51981;SDS011;37998;53.416;6.730;2022-07-29T07:27:50;4.85;;;1.70;;
51981;SDS011;37998;53.416;6.730;2022-07-29T07:30:16;9.00;;;2.50;;
51981;SDS011;37998;53.416;6.730;2022-07-29T07:32:41;3.80;;;2.00;;
51981;SDS011;37998;53.416;6.730;2022-07-29T07:35:08;8.43;;;2.58;;
51981;SDS011;37998;53.416;6.730;2022-07-29T07:37:34;4.32;;;2.22;;
51981;SDS011;37998;53.416;6.730;2022-07-29T07:40:00;5.13;;;2.13;;
51981;SDS011;37998;53.416;6.730;2022-07-29T07:42:26;7.32;;;2.10;;
51981;SDS011;37998;53.416;6.730;2022-07-29T07:44:52;5.47;;;2.13;;
51981;SDS011;37998;53.416;6.730;2022-07-29T07:47:18;4.90;;;2.20;;
51981;SDS011;37998;53.416;6.730;2022-07-29T07:49:49;5.07;;;2.08;;
51981;SDS011;37998;53.416;6.730;2022-07-29T07:52:15;4.88;;;2.00;;
51981;SDS011;37998;53.416;6.730;2022-07-29T07:54:41;6.90;;;2.20;;
51981;SDS011;37998;53.416;6.730;2022-07-29T07:57:08;6.38;;;2.40;;
51981;SDS011;37998;53.416;6.730;2022-07-29T07:59:34;10.75;;;2.40;;
51981;SDS011;37998;53.416;6.730;2022-07-29T08:02:00;3.90;;;1.92;;
51981;SDS011;37998;53.416;6.730;2022-07-29T08:04:26;14.50;;;2.47;;
51981;SDS011;37998;53.416;6.730;2022-07-29T08:06:51;5.40;;;2.00;;
51981;SDS011;37998;53.416;6.730;2022-07-29T08:09:19;4.40;;;1.83;;
51981;SDS011;37998;53.416;6.730;2022-07-29T08:11:45;6.15;;;2.28;;
51981;SDS011;37998;53.416;6.730;2022-07-29T08:14:11;9.02;;;2.40;;
51981;SDS011;37998;53.416;6.730;2022-07-29T08:16:38;8.77;;;2.38;;
51981;SDS011;37998;53.416;6.730;2022-07-29T08:19:05;3.55;;;1.90;;
51981;SDS011;37998;53.416;6.730;2022-07-29T08:21:31;4.68;;;2.17;;
51981;SDS011;37998;53.416;6.730;2022-07-29T08:23:56;6.10;;;2.10;;
51981;SDS011;37998;53.416;6.730;2022-07-29T08:26:41;3.33;;;2.10;;
51981;SDS011;37998;53.416;6.730;2022-07-29T08:29:08;7.65;;;2.50;;
51981;SDS011;37998;53.416;6.730;2022-07-29T08:31:34;4.85;;;2.20;;
51981;SDS011;37998;53.416;6.730;2022-07-29T08:34:04;4.82;;;1.80;;
51981;SDS011;37998;53.416;6.730;2022-07-29T08:36:30;4.47;;;1.80;;
51981;SDS011;37998;53.416;6.730;2022-07-29T08:38:57;5.95;;;2.13;;
51981;SDS011;37998;53.416;6.730;2022-07-29T08:41:23;3.58;;;1.95;;
51981;SDS011;37998;53.416;6.730;2022-07-29T08:43:49;6.32;;;1.83;;
51981;SDS011;37998;53.416;6.730;2022-07-29T08:46:16;3.85;;;2.00;;
51981;SDS011;37998;53.416;6.730;2022-07-29T08:48:42;4.85;;;1.77;;
51981;SDS011;37998;53.416;6.730;2022-07-29T08:51:08;7.65;;;1.98;;
51981;SDS011;37998;53.416;6.730;2022-07-29T08:53:40;7.65;;;2.20;;
51981;SDS011;37998;53.416;6.730;2022-07-29T08:56:11;3.38;;;1.75;;
51981;SDS011;37998;53.416;6.730;2022-07-29T08:58:38;5.72;;;1.92;;
51981;SDS011;37998;53.416;6.730;2022-07-29T09:01:04;3.45;;;1.90;;
51981;SDS011;37998;53.416;6.730;2022-07-29T09:03:32;5.05;;;2.13;;
51981;SDS011;37998;53.416;6.730;2022-07-29T09:06:01;6.22;;;2.25;;
51981;SDS011;37998;53.416;6.730;2022-07-29T09:08:27;4.85;;;2.28;;
51981;SDS011;37998;53.416;6.730;2022-07-29T09:10:53;2.78;;;1.90;;
51981;SDS011;37998;53.416;6.730;2022-07-29T09:13:20;6.88;;;2.17;;
51981;SDS011;37998;53.416;6.730;2022-07-29T09:15:46;3.90;;;1.92;;
51981;SDS011;37998;53.416;6.730;2022-07-29T09:18:29;3.53;;;1.92;;
51981;SDS011;37998;53.416;6.730;2022-07-29T09:21:01;4.65;;;1.75;;
51981;SDS011;37998;53.416;6.730;2022-07-29T09:26:45;6.68;;;2.13;;
51981;SDS011;37998;53.416;6.730;2022-07-29T09:29:18;6.60;;;2.00;;
51981;SDS011;37998;53.416;6.730;2022-07-29T09:31:46;4.07;;;1.70;;
51981;SDS011;37998;53.416;6.730;2022-07-29T09:34:15;4.28;;;1.70;;
51981;SDS011;37998;53.416;6.730;2022-07-29T09:36:42;4.35;;;2.10;;
51981;SDS011;37998;53.416;6.730;2022-07-29T09:39:13;6.90;;;2.58;;
51981;SDS011;37998;53.416;6.730;2022-07-29T09:41:52;4.90;;;2.00;;
51981;SDS011;37998;53.416;6.730;2022-07-29T09:44:19;6.43;;;1.77;;
51981;SDS011;37998;53.416;6.730;2022-07-29T09:47:07;4.10;;;1.85;;
51981;SDS011;37998;53.416;6.730;2022-07-29T09:49:32;6.35;;;2.58;;
51981;SDS011;37998;53.416;6.730;2022-07-29T09:52:08;5.43;;;1.90;;
51981;SDS011;37998;53.416;6.730;2022-07-29T09:54:36;5.50;;;2.45;;
51981;SDS011;37998;53.416;6.730;2022-07-29T09:57:03;6.13;;;2.20;;
51981;SDS011;37998;53.416;6.730;2022-07-29T10:02:34;2.50;;;1.60;;
51981;SDS011;37998;53.416;6.730;2022-07-29T10:05:01;4.63;;;2.60;;
51981;SDS011;37998;53.416;6.730;2022-07-29T10:07:49;3.45;;;1.80;;
51981;SDS011;37998;53.416;6.730;2022-07-29T10:10:19;6.18;;;1.98;;
51981;SDS011;37998;53.416;6.730;2022-07-29T10:12:50;9.65;;;2.30;;
51981;SDS011;37998;53.416;6.730;2022-07-29T10:15:18;5.07;;;2.15;;
51981;SDS011;37998;53.416;6.730;2022-07-29T10:17:44;5.45;;;2.42;;
51981;SDS011;37998;53.416;6.730;2022-07-29T10:20:10;8.48;;;2.95;;
51981;SDS011;37998;53.416;6.730;2022-07-29T10:22:36;6.10;;;2.00;;
51981;SDS011;37998;53.416;6.730;2022-07-29T10:25:02;4.18;;;2.08;;
51981;SDS011;37998;53.416;6.730;2022-07-29T10:27:28;5.07;;;2.10;;
51981;SDS011;37998;53.416;6.730;2022-07-29T10:29:54;4.88;;;2.10;;
51981;SDS011;37998;53.416;6.730;2022-07-29T10:35:11;4.97;;;2.08;;
51981;SDS011;37998;53.416;6.730;2022-07-29T10:43:24;9.68;;;2.95;;
51981;SDS011;37998;53.416;6.730;2022-07-29T10:45:56;4.65;;;2.55;;
51981;SDS011;37998;53.416;6.730;2022-07-29T10:48:24;5.53;;;2.78;;
51981;SDS011;37998;53.416;6.730;2022-07-29T10:56:28;8.57;;;2.50;;
51981;SDS011;37998;53.416;6.730;2022-07-29T11:01:46;4.70;;;2.83;;
51981;SDS011;37998;53.416;6.730;2022-07-29T11:04:12;7.70;;;2.63;;
51981;SDS011;37998;53.416;6.730;2022-07-29T11:09:29;5.43;;;2.75;;
51981;SDS011;37998;53.416;6.730;2022-07-29T11:11:55;4.38;;;2.85;;
51981;SDS011;37998;53.416;6.730;2022-07-29T11:14:56;4.53;;;2.88;;
51981;SDS011;37998;53.416;6.730;2022-07-29T11:17:17;4.78;;;2.45;;
51981;SDS011;37998;53.416;6.730;2022-07-29T11:19:42;6.45;;;2.50;;
51981;SDS011;37998;53.416;6.730;2022-07-29T11:22:09;4.72;;;2.33;;
51981;SDS011;37998;53.416;6.730;2022-07-29T11:24:36;6.68;;;3.00;;
51981;SDS011;37998;53.416;6.730;2022-07-29T11:27:12;4.38;;;2.60;;
51981;SDS011;37998;53.416;6.730;2022-07-29T11:29:52;5.85;;;2.47;;
51981;SDS011;37998;53.416;6.730;2022-07-29T11:32:20;6.53;;;2.42;;
51981;SDS011;37998;53.416;6.730;2022-07-29T11:34:47;5.15;;;2.33;;
51981;SDS011;37998;53.416;6.730;2022-07-29T11:37:14;6.18;;;2.40;;
51981;SDS011;37998;53.416;6.730;2022-07-29T11:39:41;3.47;;;2.28;;
51981;SDS011;37998;53.416;6.730;2022-07-29T11:47:22;4.65;;;2.67;;
51981;SDS011;37998;53.416;6.730;2022-07-29T11:49:48;3.97;;;2.38;;
51981;SDS011;37998;53.416;6.730;2022-07-29T11:52:18;4.80;;;2.28;;
51981;SDS011;37998;53.416;6.730;2022-07-29T11:54:46;4.00;;;2.08;;
51981;SDS011;37998;53.416;6.730;2022-07-29T11:57:14;7.30;;;2.15;;
51981;SDS011;37998;53.416;6.730;2022-07-29T11:59:43;6.72;;;2.40;;
51981;SDS011;37998;53.416;6.730;2022-07-29T12:02:10;6.07;;;2.13;;
51981;SDS011;37998;53.416;6.730;2022-07-29T12:04:55;6.78;;;2.47;;
51981;SDS011;37998;53.416;6.730;2022-07-29T12:07:28;5.85;;;2.30;;
51981;SDS011;37998;53.416;6.730;2022-07-29T12:09:55;6.70;;;2.72;;
51981;SDS011;37998;53.416;6.730;2022-07-29T12:12:21;6.80;;;2.88;;
51981;SDS011;37998;53.416;6.730;2022-07-29T12:14:47;5.63;;;2.85;;
51981;SDS011;37998;53.416;6.730;2022-07-29T12:17:29;7.38;;;2.92;;
51981;SDS011;37998;53.416;6.730;2022-07-29T12:19:56;9.43;;;2.78;;
51981;SDS011;37998;53.416;6.730;2022-07-29T12:22:30;10.15;;;2.90;;
51981;SDS011;37998;53.416;6.730;2022-07-29T12:25:02;5.25;;;2.42;;
51981;SDS011;37998;53.416;6.730;2022-07-29T12:27:30;4.93;;;2.83;;
51981;SDS011;37998;53.416;6.730;2022-07-29T12:29:58;8.63;;;3.10;;
51981;SDS011;37998;53.416;6.730;2022-07-29T12:32:36;4.65;;;2.33;;
51981;SDS011;37998;53.416;6.730;2022-07-29T12:35:10;7.38;;;2.58;;
51981;SDS011;37998;53.416;6.730;2022-07-29T12:37:44;7.40;;;2.45;;
51981;SDS011;37998;53.416;6.730;2022-07-29T12:40:13;6.53;;;2.50;;
51981;SDS011;37998;53.416;6.730;2022-07-29T12:42:41;5.30;;;2.30;;
51981;SDS011;37998;53.416;6.730;2022-07-29T12:45:29;5.55;;;2.30;;
51981;SDS011;37998;53.416;6.730;2022-07-29T12:47:56;5.57;;;2.25;;
51981;SDS011;37998;53.416;6.730;2022-07-29T12:50:21;4.40;;;2.20;;
51981;SDS011;37998;53.416;6.730;2022-07-29T12:52:47;3.88;;;1.90;;
51981;SDS011;37998;53.416;6.730;2022-07-29T12:55:13;6.10;;;2.25;;
51981;SDS011;37998;53.416;6.730;2022-07-29T12:57:49;4.63;;;2.67;;
51981;SDS011;37998;53.416;6.730;2022-07-29T13:00:21;7.80;;;2.40;;
51981;SDS011;37998;53.416;6.730;2022-07-29T13:02:54;4.15;;;2.45;;
51981;SDS011;37998;53.416;6.730;2022-07-29T13:05:20;3.67;;;2.15;;
51981;SDS011;37998;53.416;6.730;2022-07-29T13:07:46;6.47;;;2.30;;
51981;SDS011;37998;53.416;6.730;2022-07-29T13:10:13;5.75;;;2.10;;
51981;SDS011;37998;53.416;6.730;2022-07-29T13:13:23;5.20;;;1.95;;
51981;SDS011;37998;53.416;6.730;2022-07-29T13:15:30;4.35;;;2.22;;
51981;SDS011;37998;53.416;6.730;2022-07-29T13:17:56;7.13;;;2.35;;
51981;SDS011;37998;53.416;6.730;2022-07-29T13:20:26;9.55;;;2.35;;
51981;SDS011;37998;53.416;6.730;2022-07-29T13:22:54;7.63;;;2.60;;
51981;SDS011;37998;53.416;6.730;2022-07-29T13:25:29;5.28;;;2.42;;
51981;SDS011;37998;53.416;6.730;2022-07-29T13:27:57;6.93;;;2.30;;
51981;SDS011;37998;53.416;6.730;2022-07-29T13:30:23;5.90;;;2.80;;
51981;SDS011;37998;53.416;6.730;2022-07-29T13:32:50;6.57;;;2.38;;
51981;SDS011;37998;53.416;6.730;2022-07-29T13:35:17;4.70;;;2.28;;
51981;SDS011;37998;53.416;6.730;2022-07-29T13:37:44;4.05;;;2.10;;
51981;SDS011;37998;53.416;6.730;2022-07-29T13:40:10;5.22;;;2.60;;
51981;SDS011;37998;53.416;6.730;2022-07-29T13:42:37;4.00;;;2.30;;
51981;SDS011;37998;53.416;6.730;2022-07-29T13:45:04;5.15;;;2.30;;
51981;SDS011;37998;53.416;6.730;2022-07-29T13:47:31;7.00;;;2.40;;
51981;SDS011;37998;53.416;6.730;2022-07-29T13:49:57;8.48;;;2.83;;
51981;SDS011;37998;53.416;6.730;2022-07-29T13:52:23;4.30;;;2.08;;
51981;SDS011;37998;53.416;6.730;2022-07-29T13:54:48;5.20;;;2.08;;
51981;SDS011;37998;53.416;6.730;2022-07-29T13:57:14;8.10;;;2.42;;
51981;SDS011;37998;53.416;6.730;2022-07-29T13:59:40;9.77;;;2.70;;
51981;SDS011;37998;53.416;6.730;2022-07-29T14:02:07;5.32;;;2.33;;
51981;SDS011;37998;53.416;6.730;2022-07-29T14:04:33;4.63;;;2.10;;
51981;SDS011;37998;53.416;6.730;2022-07-29T14:06:59;6.18;;;2.65;;
51981;SDS011;37998;53.416;6.730;2022-07-29T14:09:25;6.00;;;2.08;;
51981;SDS011;37998;53.416;6.730;2022-07-29T14:11:50;5.15;;;2.70;;
51981;SDS011;37998;53.416;6.730;2022-07-29T14:14:17;5.93;;;2.42;;
51981;SDS011;37998;53.416;6.730;2022-07-29T14:16:44;6.03;;;2.65;;
51981;SDS011;37998;53.416;6.730;2022-07-29T14:19:09;5.28;;;2.75;;
51981;SDS011;37998;53.416;6.730;2022-07-29T14:21:36;3.67;;;1.90;;
51981;SDS011;37998;53.416;6.730;2022-07-29T14:24:02;4.10;;;2.30;;
51981;SDS011;37998;53.416;6.730;2022-07-29T14:26:28;6.25;;;2.50;;
51981;SDS011;37998;53.416;6.730;2022-07-29T14:28:54;6.25;;;2.80;;
51981;SDS011;37998;53.416;6.730;2022-07-29T14:31:20;3.05;;;2.20;;
51981;SDS011;37998;53.416;6.730;2022-07-29T14:33:45;4.80;;;2.42;;
51981;SDS011;37998;53.416;6.730;2022-07-29T14:36:11;7.85;;;2.38;;
51981;SDS011;37998;53.416;6.730;2022-07-29T14:38:37;6.35;;;2.35;;
51981;SDS011;37998;53.416;6.730;2022-07-29T14:41:03;4.28;;;2.15;;
51981;SDS011;37998;53.416;6.730;2022-07-29T14:43:29;6.60;;;2.70;;
51981;SDS011;37998;53.416;6.730;2022-07-29T14:45:55;4.63;;;2.17;;
51981;SDS011;37998;53.416;6.730;2022-07-29T14:48:21;7.40;;;2.35;;
51981;SDS011;37998;53.416;6.730;2022-07-29T14:50:47;6.57;;;2.30;;
51981;SDS011;37998;53.416;6.730;2022-07-29T14:53:12;4.93;;;2.05;;
51981;SDS011;37998;53.416;6.730;2022-07-29T14:55:38;5.43;;;2.75;;
51981;SDS011;37998;53.416;6.730;2022-07-29T14:58:05;4.43;;;2.38;;
51981;SDS011;37998;53.416;6.730;2022-07-29T15:00:30;6.38;;;2.40;;
51981;SDS011;37998;53.416;6.730;2022-07-29T15:02:59;7.30;;;2.75;;
51981;SDS011;37998;53.416;6.730;2022-07-29T15:05:26;7.00;;;2.47;;
51981;SDS011;37998;53.416;6.730;2022-07-29T15:07:51;8.98;;;2.40;;
51981;SDS011;37998;53.416;6.730;2022-07-29T15:10:17;4.55;;;2.70;;
51981;SDS011;37998;53.416;6.730;2022-07-29T15:12:43;4.57;;;2.50;;
51981;SDS011;37998;53.416;6.730;2022-07-29T15:15:08;7.55;;;2.70;;
51981;SDS011;37998;53.416;6.730;2022-07-29T15:17:34;4.65;;;2.83;;
51981;SDS011;37998;53.416;6.730;2022-07-29T15:20:00;9.82;;;2.47;;
51981;SDS011;37998;53.416;6.730;2022-07-29T15:22:26;4.40;;;2.80;;
51981;SDS011;37998;53.416;6.730;2022-07-29T15:24:52;7.13;;;2.72;;
51981;SDS011;37998;53.416;6.730;2022-07-29T15:27:18;8.85;;;2.47;;
51981;SDS011;37998;53.416;6.730;2022-07-29T15:29:43;4.68;;;2.30;;
51981;SDS011;37998;53.416;6.730;2022-07-29T15:32:10;8.48;;;2.20;;
51981;SDS011;37998;53.416;6.730;2022-07-29T15:34:36;5.15;;;2.30;;